Time;durP1;ratioP1;P1;durP2;ratioP2;P2;SDS_P1;SDS_P2;PMS_P1;PMS_P2;Temp;Humidity;BMP_temperature;BMP_pressure;BME280_temperature;BME280_humidity;BME280_pressure;Samples;Min_cycle;Max_cycle;Signal;HPM_P1;HPM_P2
2022/12/23 00:00:47;;;;;;;;;;;;;;;;;;7363184;19;1838;-69
2022/12/23 00:03:15;;;;;;;;;;;;;;;;;;7365687;19;1047;-69
2022/12/23 00:05:43;;;;;;;;;;;;;;;;;;7366474;19;794;-69
2022/12/23 00:08:11;;;;;;;;;;;;;;;;;;7365395;19;1341;-70
2022/12/23 00:10:39;;;;;;;;;;;;;;;;;;7365241;19;799;-68
2022/12/23 00:15:48;;;;;;;;;;;;;;;;;;7364962;19;848;-69
2022/12/23 00:18:16;;;;;;;;;;;;;;;;;;7364521;19;1338;-69
2022/12/23 00:20:44;;;;;;;;;;;;;;;;;;7364891;19;1838;-69
2022/12/23 00:23:12;;;;;;;;;;;;;;;;;;7366435;19;823;-69
2022/12/23 00:25:44;;;;;;;;;;;;;;;;;;7364789;19;829;-69
2022/12/23 00:28:12;;;;;;;;;;;;;;;;;;7368310;19;1835;-68
2022/12/23 00:30:40;;;;;;;;;;;;;;;;;;7366209;19;802;-69
2022/12/23 00:33:09;;;;;;;;;;;;;;;;;;7366686;19;802;-69
2022/12/23 00:35:37;;;;;;;;;;;;;;;;;;7364225;19;839;-71
2022/12/23 00:38:05;;;;;;;;;;;;;;;;;;7364842;19;1337;-70
2022/12/23 00:43:14;;;;;;;;;;;;;;;;;;7366635;19;808;-69
2022/12/23 00:45:42;;;;;;;;;;;;;;;;;;7366036;19;891;-70
2022/12/23 00:50:51;;;;;;;;;;;;;;;;;;7366080;19;760;-70
2022/12/23 00:53:19;;;;;;;;;;;;;;;;;;7366822;19;791;-69
2022/12/23 00:55:47;;;;;;;;;;;;;;;;;;7363870;19;786;-70
2022/12/23 00:58:15;;;;;;;;;;;;;;;;;;7366461;19;1893;-70
2022/12/23 01:06:05;;;;;;;;;;;;;;;;;;7363222;19;780;-68
2022/12/23 01:08:33;;;;;;;;;;;;;;;;;;7364826;19;1888;-69
2022/12/23 01:11:01;;;;;;;;;;;;;;;;;;7363553;19;807;-69
2022/12/23 01:13:30;;;;;;;;;;;;;;;;;;7369900;19;858;-70
2022/12/23 01:15:58;;;;;;;;;;;;;;;;;;7370613;19;806;-70
2022/12/23 01:18:26;;;;;;;;;;;;;;;;;;7368705;19;1329;-70
2022/12/23 01:20:54;;;;;;;;;;;;;;;;;;7370030;19;1841;-69
2022/12/23 01:23:22;;;;;;;;;;;;;;;;;;7368920;19;822;-70
2022/12/23 01:25:50;;;;;;;;;;;;;;;;;;7370732;19;838;-69
2022/12/23 01:28:19;;;;;;;;;;;;;;;;;;7373306;19;1863;-70
2022/12/23 01:30:47;;;;;;;;;;;;;;;;;;7370000;19;869;-70
2022/12/23 01:33:15;;;;;;;;;;;;;;;;;;7368859;19;792;-70
2022/12/23 01:35:43;;;;;;;;;;;;;;;;;;7370480;19;817;-70
2022/12/23 01:38:11;;;;;;;;;;;;;;;;;;7369002;19;1353;-70
2022/12/23 01:40:39;;;;;;;;;;;;;;;;;;7375214;19;1854;-69
2022/12/23 01:43:05;;;;;;;;;;;;;;;;;;7376253;19;809;-70
2022/12/23 01:45:33;;;;;;;;;;;;;;;;;;7375637;19;826;-70
2022/12/23 01:48:01;;;;;;;;;;;;;;;;;;7376067;19;1333;-69
2022/12/23 01:50:29;;;;;;;;;;;;;;;;;;7376180;19;728;-70
2022/12/23 01:52:57;;;;;;;;;;;;;;;;;;7375386;19;860;-70
2022/12/23 01:55:26;;;;;;;;;;;;;;;;;;7378356;19;771;-69
2022/12/23 01:57:54;;;;;;;;;;;;;;;;;;7378939;19;1830;-69
2022/12/23 02:05:43;;;;;;;;;;;;;;;;;;7370359;19;846;-69
2022/12/23 02:10:52;;;;;;;;;;;;;;;;;;7368557;19;844;-69
2022/12/23 02:13:20;;;;;;;;;;;;;;;;;;7369386;19;818;-68
2022/12/23 02:18:29;;;;;;;;;;;;;;;;;;7366714;19;1269;-68
2022/12/23 02:20:57;;;;;;;;;;;;;;;;;;7368584;19;1841;-69
2022/12/23 02:23:25;;;;;;;;;;;;;;;;;;7367254;19;846;-69
2022/12/23 02:25:53;;;;;;;;;;;;;;;;;;7368379;19;815;-69
2022/12/23 02:28:22;;;;;;;;;;;;;;;;;;7370423;19;1892;-68
2022/12/23 02:30:50;;;;;;;;;;;;;;;;;;7368186;19;827;-68
2022/12/23 02:33:18;;;;;;;;;;;;;;;;;;7368622;19;864;-69
2022/12/23 02:35:48;;;;;;;;;;;;;;;;;;7368465;19;858;-70
2022/12/23 02:38:16;;;;;;;;;;;;;;;;;;7367256;19;1345;-69
2022/12/23 02:40:44;;;;;;;;;;;;;;;;;;7369707;19;1886;-69
2022/12/23 02:43:15;;;;;;;;;;;;;;;;;;7365285;19;1142;-69
2022/12/23 02:45:43;;;;;;;;;;;;;;;;;;7368032;19;809;-70
2022/12/23 02:48:11;;;;;;;;;;;;;;;;;;7367105;19;1273;-70
2022/12/23 02:50:39;;;;;;;;;;;;;;;;;;7372337;19;1783;-70
2022/12/23 02:53:07;;;;;;;;;;;;;;;;;;7367894;19;833;-70
2022/12/23 02:55:35;;;;;;;;;;;;;;;;;;7368085;19;846;-70
2022/12/23 02:58:04;;;;;;;;;;;;;;;;;;7369786;19;1528;-70
2022/12/23 03:00:32;;;;;;;;;;;;;;;;;;7367619;19;1837;-69
2022/12/23 03:03:00;;;;;;;;;;;;;;;;;;7368877;19;1837;-70
2022/12/23 03:05:28;;;;;;;;;;;;;;;;;;7368094;19;811;-68
2022/12/23 03:07:58;;;;;;;;;;;;;;;;;;7367108;19;809;-68
2022/12/23 03:10:26;;;;;;;;;;;;;;;;;;7365887;19;1297;-70
2022/12/23 03:12:54;;;;;;;;;;;;;;;;;;7369526;19;1760;-69
2022/12/23 03:15:22;;;;;;;;;;;;;;;;;;7367484;19;818;-70
2022/12/23 03:17:50;;;;;;;;;;;;;;;;;;7366643;19;831;-68
2022/12/23 03:20:19;;;;;;;;;;;;;;;;;;7366957;19;1913;-70
2022/12/23 03:22:47;;;;;;;;;;;;;;;;;;7362064;19;1807;-69
2022/12/23 03:25:15;;;;;;;;;;;;;;;;;;7366109;19;817;-69
2022/12/23 03:27:43;;;;;;;;;;;;;;;;;;7367714;19;1871;-70
2022/12/23 03:30:11;;;;;;;;;;;;;;;;;;7364466;19;1266;-70
2022/12/23 03:32:39;;;;;;;;;;;;;;;;;;7365473;19;845;-69
2022/12/23 03:35:08;;;;;;;;;;;;;;;;;;7364111;19;764;-69
2022/12/23 03:37:36;;;;;;;;;;;;;;;;;;7365319;19;850;-69
2022/12/23 03:40:04;;;;;;;;;;;;;;;;;;7363541;19;1266;-69
2022/12/23 03:42:32;;;;;;;;;;;;;;;;;;7364176;19;1837;-70
2022/12/23 03:45:00;;;;;;;;;;;;;;;;;;7366512;19;898;-70
2022/12/23 03:47:28;;;;;;;;;;;;;;;;;;7366613;19;863;-70
2022/12/23 03:49:56;;;;;;;;;;;;;;;;;;7363766;19;1353;-69
2022/12/23 03:52:24;;;;;;;;;;;;;;;;;;7366122;19;773;-69
2022/12/23 03:54:53;;;;;;;;;;;;;;;;;;7366400;19;819;-70
2022/12/23 03:57:21;;;;;;;;;;;;;;;;;;7366494;19;1838;-70
2022/12/23 03:59:50;;;;;;;;;;;;;;;;;;7363737;19;1301;-68
2022/12/23 04:02:18;;;;;;;;;;;;;;;;;;7364820;19;1851;-69
2022/12/23 04:04:46;;;;;;;;;;;;;;;;;;7366414;19;782;-70
2022/12/23 04:07:14;;;;;;;;;;;;;;;;;;7366460;19;751;-69
2022/12/23 04:09:43;;;;;;;;;;;;;;;;;;7361236;19;1360;-69
2022/12/23 04:12:11;;;;;;;;;;;;;;;;;;7365787;19;880;-69
2022/12/23 04:14:39;;;;;;;;;;;;;;;;;;7366022;19;874;-69
2022/12/23 04:17:07;;;;;;;;;;;;;;;;;;7366474;19;1956;-70
2022/12/23 04:19:35;;;;;;;;;;;;;;;;;;7363062;19;1278;-69
2022/12/23 04:22:03;;;;;;;;;;;;;;;;;;7364038;19;1837;-70
2022/12/23 04:24:32;;;;;;;;;;;;;;;;;;7363832;19;858;-70
2022/12/23 04:27:00;;;;;;;;;;;;;;;;;;7363923;19;1894;-70
2022/12/23 04:29:28;;;;;;;;;;;;;;;;;;7362781;19;1258;-70
2022/12/23 04:31:56;;;;;;;;;;;;;;;;;;7365791;19;780;-70
2022/12/23 04:34:24;;;;;;;;;;;;;;;;;;7365041;19;800;-69
2022/12/23 04:36:52;;;;;;;;;;;;;;;;;;7365430;19;745;-70
2022/12/23 04:39:20;;;;;;;;;;;;;;;;;;7361489;19;1348;-68
2022/12/23 04:41:49;;;;;;;;;;;;;;;;;;7364090;19;1867;-68
2022/12/23 04:44:17;;;;;;;;;;;;;;;;;;7365519;19;823;-69
2022/12/23 04:46:45;;;;;;;;;;;;;;;;;;7365000;19;779;-68
2022/12/23 04:49:13;;;;;;;;;;;;;;;;;;7369764;19;1330;-67
2022/12/23 04:51:41;;;;;;;;;;;;;;;;;;7371592;19;799;-68
2022/12/23 04:54:09;;;;;;;;;;;;;;;;;;7370711;19;893;-69
2022/12/23 04:56:37;;;;;;;;;;;;;;;;;;7371178;19;2100;-68
2022/12/23 04:59:06;;;;;;;;;;;;;;;;;;7368921;19;1282;-69
2022/12/23 05:01:34;;;;;;;;;;;;;;;;;;7369098;19;1842;-69
2022/12/23 05:04:02;;;;;;;;;;;;;;;;;;7370916;19;810;-71
2022/12/23 05:06:30;;;;;;;;;;;;;;;;;;7371166;19;821;-69
2022/12/23 05:08:58;;;;;;;;;;;;;;;;;;7369284;19;1341;-69
2022/12/23 05:11:26;;;;;;;;;;;;;;;;;;7371000;19;1895;-70
2022/12/23 05:13:54;;;;;;;;;;;;;;;;;;7370905;19;811;-69
2022/12/23 05:16:23;;;;;;;;;;;;;;;;;;7370619;19;818;-70
2022/12/23 05:18:51;;;;;;;;;;;;;;;;;;7369303;19;1290;-70
2022/12/23 05:21:19;;;;;;;;;;;;;;;;;;7370425;19;1846;-69
2022/12/23 05:23:47;;;;;;;;;;;;;;;;;;7371141;19;835;-69
2022/12/23 05:26:15;;;;;;;;;;;;;;;;;;7371192;19;779;-69
2022/12/23 05:28:44;;;;;;;;;;;;;;;;;;7368621;19;1298;-70
2022/12/23 05:31:12;;;;;;;;;;;;;;;;;;7369900;19;867;-68
2022/12/23 05:33:40;;;;;;;;;;;;;;;;;;7369907;19;811;-69
2022/12/23 05:36:08;;;;;;;;;;;;;;;;;;7370421;19;858;-69
2022/12/23 05:38:36;;;;;;;;;;;;;;;;;;7368526;19;1300;-70
2022/12/23 05:41:05;;;;;;;;;;;;;;;;;;7369667;19;1980;-69
2022/12/23 05:43:33;;;;;;;;;;;;;;;;;;7367487;19;1806;-69
2022/12/23 05:46:01;;;;;;;;;;;;;;;;;;7369319;19;809;-70
2022/12/23 05:48:29;;;;;;;;;;;;;;;;;;7367937;19;1361;-69
2022/12/23 05:50:57;;;;;;;;;;;;;;;;;;7369738;19;892;-68
2022/12/23 05:53:25;;;;;;;;;;;;;;;;;;7369901;19;865;-68
2022/12/23 05:55:54;;;;;;;;;;;;;;;;;;7369342;19;806;-69
2022/12/23 05:58:22;;;;;;;;;;;;;;;;;;7366664;19;1274;-68
2022/12/23 06:00:50;;;;;;;;;;;;;;;;;;7369250;19;898;-70
2022/12/23 06:03:19;;;;;;;;;;;;;;;;;;7366439;19;1849;-70
2022/12/23 06:05:47;;;;;;;;;;;;;;;;;;7368967;19;820;-70
2022/12/23 06:08:15;;;;;;;;;;;;;;;;;;7367892;19;1361;-69
2022/12/23 06:10:43;;;;;;;;;;;;;;;;;;7368855;19;1853;-69
2022/12/23 06:13:11;;;;;;;;;;;;;;;;;;7369339;19;822;-70
2022/12/23 06:15:39;;;;;;;;;;;;;;;;;;7369366;19;810;-68
2022/12/23 06:18:07;;;;;;;;;;;;;;;;;;7368182;19;1215;-67
2022/12/23 06:20:36;;;;;;;;;;;;;;;;;;7369471;19;1859;-69
2022/12/23 06:23:04;;;;;;;;;;;;;;;;;;7369830;19;1891;-69
2022/12/23 06:25:32;;;;;;;;;;;;;;;;;;7371600;19;1830;-69
2022/12/23 06:28:00;;;;;;;;;;;;;;;;;;7372185;19;1910;-71
2022/12/23 06:30:28;;;;;;;;;;;;;;;;;;7369807;19;1876;-70
2022/12/23 06:32:56;;;;;;;;;;;;;;;;;;7368405;19;786;-70
2022/12/23 06:35:25;;;;;;;;;;;;;;;;;;7373566;19;1644;-70
2022/12/23 06:37:53;;;;;;;;;;;;;;;;;;7366284;19;807;-71
2022/12/23 06:40:21;;;;;;;;;;;;;;;;;;7366284;19;1334;-69
2022/12/23 06:42:49;;;;;;;;;;;;;;;;;;7366560;19;1841;-70
2022/12/23 06:45:17;;;;;;;;;;;;;;;;;;7368004;19;850;-70
2022/12/23 06:47:45;;;;;;;;;;;;;;;;;;7370575;19;1667;-70
2022/12/23 06:50:13;;;;;;;;;;;;;;;;;;7365929;19;1395;-70
2022/12/23 06:52:42;;;;;;;;;;;;;;;;;;7367815;19;807;-70
2022/12/23 06:55:10;;;;;;;;;;;;;;;;;;7368081;19;811;-71
2022/12/23 06:57:38;;;;;;;;;;;;;;;;;;7367753;19;794;-70
2022/12/23 07:00:06;;;;;;;;;;;;;;;;;;7365640;19;1880;-70
2022/12/23 07:02:34;;;;;;;;;;;;;;;;;;7370669;19;1930;-71
2022/12/23 07:05:02;;;;;;;;;;;;;;;;;;7369260;19;878;-71
2022/12/23 07:07:31;;;;;;;;;;;;;;;;;;7371718;19;1870;-68
2022/12/23 07:09:59;;;;;;;;;;;;;;;;;;7368579;19;1907;-70
2022/12/23 07:12:28;;;;;;;;;;;;;;;;;;7372138;19;1826;-68
2022/12/23 07:14:56;;;;;;;;;;;;;;;;;;7369598;19;1900;-70
2022/12/23 07:17:24;;;;;;;;;;;;;;;;;;7369042;19;1890;-70
2022/12/23 07:19:52;;;;;;;;;;;;;;;;;;7367129;19;1926;-70
2022/12/23 07:22:20;;;;;;;;;;;;;;;;;;7369101;19;1881;-70
2022/12/23 07:24:48;;;;;;;;;;;;;;;;;;7371275;19;1641;-70
2022/12/23 07:27:16;;;;;;;;;;;;;;;;;;7372983;19;1787;-70
2022/12/23 07:29:45;;;;;;;;;;;;;;;;;;7370744;19;1850;-70
2022/12/23 07:32:13;;;;;;;;;;;;;;;;;;7374494;19;1587;-71
2022/12/23 07:34:41;;;;;;;;;;;;;;;;;;7374489;19;1869;-71
2022/12/23 07:37:09;;;;;;;;;;;;;;;;;;7372674;19;1603;-70
2022/12/23 07:39:38;;;;;;;;;;;;;;;;;;7367887;19;1259;-71
2022/12/23 07:42:06;;;;;;;;;;;;;;;;;;7370004;19;1851;-69
2022/12/23 07:44:34;;;;;;;;;;;;;;;;;;7372650;19;1948;-70
2022/12/23 07:47:02;;;;;;;;;;;;;;;;;;7371326;19;1868;-71
2022/12/23 07:49:31;;;;;;;;;;;;;;;;;;7365558;19;1301;-71
2022/12/23 07:51:59;;;;;;;;;;;;;;;;;;7369539;19;1788;-70
2022/12/23 07:54:27;;;;;;;;;;;;;;;;;;7369073;19;1918;-71
2022/12/23 07:56:56;;;;;;;;;;;;;;;;;;7372037;19;1683;-71
2022/12/23 07:59:25;;;;;;;;;;;;;;;;;;7366207;19;2014;-71
2022/12/23 08:01:53;;;;;;;;;;;;;;;;;;7368382;19;1849;-70
2022/12/23 08:04:21;;;;;;;;;;;;;;;;;;7364740;19;857;-71
2022/12/23 08:06:49;;;;;;;;;;;;;;;;;;7368604;19;2271;-71
2022/12/23 08:09:17;;;;;;;;;;;;;;;;;;7365220;19;1951;-70
2022/12/23 08:11:45;;;;;;;;;;;;;;;;;;7368412;19;1873;-71
2022/12/23 08:14:14;;;;;;;;;;;;;;;;;;7367767;19;1857;-70
2022/12/23 08:16:42;;;;;;;;;;;;;;;;;;7370938;19;1871;-70
2022/12/23 08:19:10;;;;;;;;;;;;;;;;;;7365357;19;1345;-70
2022/12/23 08:21:38;;;;;;;;;;;;;;;;;;7370092;19;1713;-71
2022/12/23 08:24:06;;;;;;;;;;;;;;;;;;7371674;19;1861;-71
2022/12/23 08:26:35;;;;;;;;;;;;;;;;;;7375730;19;1727;-71
2022/12/23 08:29:03;;;;;;;;;;;;;;;;;;7374881;19;1863;-71
2022/12/23 08:31:31;;;;;;;;;;;;;;;;;;7376363;19;1844;-71
2022/12/23 08:33:59;;;;;;;;;;;;;;;;;;7376160;19;1862;-70
2022/12/23 08:36:27;;;;;;;;;;;;;;;;;;7373695;19;1822;-70
2022/12/23 08:38:56;;;;;;;;;;;;;;;;;;7375478;19;1599;-72
2022/12/23 08:41:24;;;;;;;;;;;;;;;;;;7375551;19;1849;-70
2022/12/23 08:43:52;;;;;;;;;;;;;;;;;;7376362;19;1933;-71
2022/12/23 08:46:20;;;;;;;;;;;;;;;;;;7375892;19;1837;-71
2022/12/23 08:48:48;;;;;;;;;;;;;;;;;;7375553;19;1726;-72
2022/12/23 08:51:16;;;;;;;;;;;;;;;;;;7372360;19;1868;-71
2022/12/23 08:53:44;;;;;;;;;;;;;;;;;;7372729;19;2213;-71
2022/12/23 08:56:13;;;;;;;;;;;;;;;;;;7370851;19;1871;-72
2022/12/23 08:58:41;;;;;;;;;;;;;;;;;;7371373;19;1582;-71
2022/12/23 09:01:09;;;;;;;;;;;;;;;;;;7375160;19;1407;-72
2022/12/23 09:03:37;;;;;;;;;;;;;;;;;;7376592;19;1842;-72
2022/12/23 09:06:05;;;;;;;;;;;;;;;;;;7374694;19;822;-72
2022/12/23 09:08:33;;;;;;;;;;;;;;;;;;7375450;19;1861;-73
2022/12/23 09:11:02;;;;;;;;;;;;;;;;;;7374214;19;1890;-71
2022/12/23 09:13:30;;;;;;;;;;;;;;;;;;7377100;19;1885;-72
2022/12/23 09:15:58;;;;;;;;;;;;;;;;;;7376253;19;1868;-72
2022/12/23 09:18:26;;;;;;;;;;;;;;;;;;7374639;19;1892;-72
2022/12/23 09:20:54;;;;;;;;;;;;;;;;;;7372318;19;1716;-72
2022/12/23 09:23:22;;;;;;;;;;;;;;;;;;7369682;19;1897;-72
2022/12/23 09:25:50;;;;;;;;;;;;;;;;;;7372222;19;1835;-72
2022/12/23 09:28:18;;;;;;;;;;;;;;;;;;7371760;19;1869;-71
2022/12/23 09:30:47;;;;;;;;;;;;;;;;;;7373754;19;1852;-72
2022/12/23 09:33:15;;;;;;;;;;;;;;;;;;7374290;19;1858;-71
2022/12/23 09:35:44;;;;;;;;;;;;;;;;;;7370953;19;885;-71
2022/12/23 09:38:12;;;;;;;;;;;;;;;;;;7374237;19;1872;-71
2022/12/23 09:40:40;;;;;;;;;;;;;;;;;;7370168;19;1872;-72
2022/12/23 09:43:08;;;;;;;;;;;;;;;;;;7374407;19;1841;-72
2022/12/23 09:45:36;;;;;;;;;;;;;;;;;;7371334;19;784;-71
2022/12/23 09:48:04;;;;;;;;;;;;;;;;;;7372910;19;1885;-72
2022/12/23 09:50:32;;;;;;;;;;;;;;;;;;7375550;19;1830;-71
2022/12/23 09:53:01;;;;;;;;;;;;;;;;;;7374347;19;1867;-71
2022/12/23 09:55:29;;;;;;;;;;;;;;;;;;7373874;19;1884;-70
2022/12/23 09:57:59;;;;;;;;;;;;;;;;;;7372003;19;1900;-70
2022/12/23 10:00:28;;;;;;;;;;;;;;;;;;7370951;19;1812;-67
2022/12/23 10:02:56;;;;;;;;;;;;;;;;;;7374315;19;1867;-70
2022/12/23 10:05:24;;;;;;;;;;;;;;;;;;7371426;19;1843;-69
2022/12/23 10:07:52;;;;;;;;;;;;;;;;;;7372106;19;1902;-69
2022/12/23 10:10:20;;;;;;;;;;;;;;;;;;7367978;19;1266;-69
2022/12/23 10:12:48;;;;;;;;;;;;;;;;;;7373043;19;1928;-71
2022/12/23 10:15:16;;;;;;;;;;;;;;;;;;7375733;19;1875;-71
2022/12/23 10:17:45;;;;;;;;;;;;;;;;;;7375812;19;1848;-70
2022/12/23 10:20:13;;;;;;;;;;;;;;;;;;7370599;19;1917;-70
2022/12/23 10:22:41;;;;;;;;;;;;;;;;;;7373934;19;1845;-69
2022/12/23 10:25:09;;;;;;;;;;;;;;;;;;7373593;19;1841;-69
2022/12/23 10:27:37;;;;;;;;;;;;;;;;;;7371263;19;2130;-70
2022/12/23 10:30:06;;;;;;;;;;;;;;;;;;7371557;19;1842;-70
2022/12/23 10:32:34;;;;;;;;;;;;;;;;;;7375789;19;1579;-71
2022/12/23 10:35:02;;;;;;;;;;;;;;;;;;7371615;19;1896;-71
2022/12/23 10:37:30;;;;;;;;;;;;;;;;;;7372203;19;1845;-70
2022/12/23 10:39:58;;;;;;;;;;;;;;;;;;7365374;19;1724;-71
2022/12/23 10:42:26;;;;;;;;;;;;;;;;;;7371650;19;1875;-71
2022/12/23 10:44:55;;;;;;;;;;;;;;;;;;7369624;19;2000;-71
2022/12/23 10:47:23;;;;;;;;;;;;;;;;;;7370925;19;1647;-70
2022/12/23 10:49:51;;;;;;;;;;;;;;;;;;7367204;19;1886;-69
2022/12/23 10:52:19;;;;;;;;;;;;;;;;;;7372398;19;1902;-70
2022/12/23 10:54:48;;;;;;;;;;;;;;;;;;7373319;19;1473;-71
2022/12/23 10:57:16;;;;;;;;;;;;;;;;;;7371565;19;1894;-71
2022/12/23 10:59:44;;;;;;;;;;;;;;;;;;7368387;19;1952;-69
2022/12/23 11:02:12;;;;;;;;;;;;;;;;;;7371967;19;1862;-70
2022/12/23 11:04:40;;;;;;;;;;;;;;;;;;7370818;19;1894;-70
2022/12/23 11:07:08;;;;;;;;;;;;;;;;;;7370632;19;2211;-70
2022/12/23 11:09:37;;;;;;;;;;;;;;;;;;7369632;19;1889;-70
2022/12/23 11:12:05;;;;;;;;;;;;;;;;;;7370397;19;1916;-69
2022/12/23 11:14:33;;;;;;;;;;;;;;;;;;7370406;19;802;-70
2022/12/23 11:17:01;;;;;;;;;;;;;;;;;;7369224;19;1987;-70
2022/12/23 11:19:29;;;;;;;;;;;;;;;;;;7365992;19;1298;-69
2022/12/23 11:21:57;;;;;;;;;;;;;;;;;;7369470;19;1801;-70
2022/12/23 11:24:25;;;;;;;;;;;;;;;;;;7372141;19;1845;-70
2022/12/23 11:26:54;;;;;;;;;;;;;;;;;;7372893;19;1925;-69
2022/12/23 11:29:22;;;;;;;;;;;;;;;;;;7371451;19;1892;-70
2022/12/23 11:31:50;;;;;;;;;;;;;;;;;;7370340;19;1841;-71
2022/12/23 11:34:18;;;;;;;;;;;;;;;;;;7370149;19;2128;-69
2022/12/23 11:36:46;;;;;;;;;;;;;;;;;;7366706;19;858;-72
2022/12/23 11:39:14;;;;;;;;;;;;;;;;;;7370157;19;1944;-67
2022/12/23 11:41:42;;;;;;;;;;;;;;;;;;7368355;19;1719;-70
2022/12/23 11:44:11;;;;;;;;;;;;;;;;;;7370400;19;1819;-70
2022/12/23 11:46:39;;;;;;;;;;;;;;;;;;7371512;19;1820;-70
2022/12/23 11:49:07;;;;;;;;;;;;;;;;;;7370182;19;1882;-71
2022/12/23 11:51:35;;;;;;;;;;;;;;;;;;7370356;19;762;-71
2022/12/23 11:54:03;;;;;;;;;;;;;;;;;;7373582;19;1824;-71
2022/12/23 11:56:31;;;;;;;;;;;;;;;;;;7365615;19;1909;-70
2022/12/23 11:59:00;;;;;;;;;;;;;;;;;;7368202;19;1903;-71
2022/12/23 12:01:28;;;;;;;;;;;;;;;;;;7368260;19;1900;-69
2022/12/23 12:03:57;;;;;;;;;;;;;;;;;;7369794;19;1854;-69
2022/12/23 12:06:26;;;;;;;;;;;;;;;;;;7371294;19;1869;-68
2022/12/23 12:08:54;;;;;;;;;;;;;;;;;;7370575;19;1830;-68
2022/12/23 12:11:22;;;;;;;;;;;;;;;;;;7369833;19;1889;-69
2022/12/23 12:13:50;;;;;;;;;;;;;;;;;;7369960;19;1923;-69
2022/12/23 12:16:18;;;;;;;;;;;;;;;;;;7370369;19;855;-69
2022/12/23 12:18:46;;;;;;;;;;;;;;;;;;7371109;19;1743;-69
2022/12/23 12:21:14;;;;;;;;;;;;;;;;;;7374990;19;1620;-69
2022/12/23 12:23:43;;;;;;;;;;;;;;;;;;7374669;19;1806;-70
2022/12/23 12:26:11;;;;;;;;;;;;;;;;;;7375141;19;1497;-70
2022/12/23 12:28:39;;;;;;;;;;;;;;;;;;7375330;19;1813;-69
2022/12/23 12:31:07;;;;;;;;;;;;;;;;;;7379345;19;1900;-71
2022/12/23 12:33:35;;;;;;;;;;;;;;;;;;7377481;19;1601;-69
2022/12/23 12:36:03;;;;;;;;;;;;;;;;;;7376114;19;822;-69
2022/12/23 12:38:31;;;;;;;;;;;;;;;;;;7385658;19;1936;-69
2022/12/23 12:41:00;;;;;;;;;;;;;;;;;;7381158;19;807;-69
2022/12/23 12:43:29;;;;;;;;;;;;;;;;;;7379779;19;1839;-69
2022/12/23 12:45:57;;;;;;;;;;;;;;;;;;7383712;19;1723;-68
2022/12/23 12:48:25;;;;;;;;;;;;;;;;;;7386866;19;1529;-70
2022/12/23 12:50:53;;;;;;;;;;;;;;;;;;7375717;19;1862;-70
2022/12/23 12:53:21;;;;;;;;;;;;;;;;;;7373888;19;1757;-71
2022/12/23 12:55:49;;;;;;;;;;;;;;;;;;7368067;19;992;-69
2022/12/23 12:58:17;;;;;;;;;;;;;;;;;;7370140;19;1822;-71
2022/12/23 13:00:46;;;;;;;;;;;;;;;;;;7370651;19;2047;-72
2022/12/23 13:03:14;;;;;;;;;;;;;;;;;;7371366;19;1895;-69
2022/12/23 13:05:42;;;;;;;;;;;;;;;;;;7368868;19;2264;-70
2022/12/23 13:08:10;;;;;;;;;;;;;;;;;;7370856;19;1734;-70
2022/12/23 13:10:38;;;;;;;;;;;;;;;;;;7372774;19;806;-70
2022/12/23 13:13:06;;;;;;;;;;;;;;;;;;7373132;19;1957;-70
2022/12/23 13:15:34;;;;;;;;;;;;;;;;;;7375845;19;1838;-68
2022/12/23 13:18:03;;;;;;;;;;;;;;;;;;7374322;19;1981;-69
2022/12/23 13:20:31;;;;;;;;;;;;;;;;;;7371563;19;1365;-70
2022/12/23 13:22:59;;;;;;;;;;;;;;;;;;7375180;19;2086;-69
2022/12/23 13:25:27;;;;;;;;;;;;;;;;;;7373913;19;1879;-68
2022/12/23 13:27:55;;;;;;;;;;;;;;;;;;7376031;19;1839;-68
2022/12/23 13:30:23;;;;;;;;;;;;;;;;;;7372474;19;1872;-67
2022/12/23 13:32:52;;;;;;;;;;;;;;;;;;7374495;19;1960;-69
2022/12/23 13:35:20;;;;;;;;;;;;;;;;;;7374136;19;1870;-69
2022/12/23 13:37:48;;;;;;;;;;;;;;;;;;7373929;19;1875;-70
2022/12/23 13:40:16;;;;;;;;;;;;;;;;;;7371291;19;1900;-69
2022/12/23 13:42:44;;;;;;;;;;;;;;;;;;7372797;19;1856;-68
2022/12/23 13:45:12;;;;;;;;;;;;;;;;;;7373193;19;1849;-69
2022/12/23 13:47:40;;;;;;;;;;;;;;;;;;7370525;19;1845;-65
2022/12/23 13:50:09;;;;;;;;;;;;;;;;;;7367942;19;1747;-69
2022/12/23 13:52:37;;;;;;;;;;;;;;;;;;7370531;19;1533;-70
2022/12/23 13:55:05;;;;;;;;;;;;;;;;;;7371377;19;891;-69
2022/12/23 13:57:33;;;;;;;;;;;;;;;;;;7370460;19;1845;-70
2022/12/23 14:00:01;;;;;;;;;;;;;;;;;;7368984;19;1333;-69
2022/12/23 14:02:29;;;;;;;;;;;;;;;;;;7375072;19;1994;-68
2022/12/23 14:04:57;;;;;;;;;;;;;;;;;;7369260;19;1814;-69
2022/12/23 14:07:26;;;;;;;;;;;;;;;;;;7372605;19;1817;-69
2022/12/23 14:09:54;;;;;;;;;;;;;;;;;;7372367;19;1822;-68
2022/12/23 14:12:22;;;;;;;;;;;;;;;;;;7372120;19;1760;-67
2022/12/23 14:14:50;;;;;;;;;;;;;;;;;;7374689;19;1610;-68
2022/12/23 14:17:18;;;;;;;;;;;;;;;;;;7376167;19;1817;-69
2022/12/23 14:19:46;;;;;;;;;;;;;;;;;;7368635;19;1894;-69
2022/12/23 14:22:14;;;;;;;;;;;;;;;;;;7371979;19;1789;-68
2022/12/23 14:24:43;;;;;;;;;;;;;;;;;;7372687;19;1851;-68
2022/12/23 14:27:11;;;;;;;;;;;;;;;;;;7370585;19;838;-69
2022/12/23 14:29:39;;;;;;;;;;;;;;;;;;7370330;19;1822;-69
2022/12/23 14:32:07;;;;;;;;;;;;;;;;;;7371920;19;1969;-69
2022/12/23 14:34:36;;;;;;;;;;;;;;;;;;7370995;19;1862;-70
2022/12/23 14:37:04;;;;;;;;;;;;;;;;;;7369012;19;1669;-68
2022/12/23 14:39:32;;;;;;;;;;;;;;;;;;7368187;19;1864;-68
2022/12/23 14:42:00;;;;;;;;;;;;;;;;;;7370138;19;877;-69
2022/12/23 14:44:28;;;;;;;;;;;;;;;;;;7374562;19;1871;-69
2022/12/23 14:46:57;;;;;;;;;;;;;;;;;;7370207;19;1833;-69
2022/12/23 14:49:25;;;;;;;;;;;;;;;;;;7369310;19;1920;-69
2022/12/23 14:51:53;;;;;;;;;;;;;;;;;;7372640;19;1549;-69
2022/12/23 14:54:21;;;;;;;;;;;;;;;;;;7372424;19;1850;-69
2022/12/23 14:56:49;;;;;;;;;;;;;;;;;;7371719;19;1625;-69
2022/12/23 14:59:18;;;;;;;;;;;;;;;;;;7369734;19;1854;-68
2022/12/23 15:01:46;;;;;;;;;;;;;;;;;;7371937;19;1790;-66
2022/12/23 15:04:14;;;;;;;;;;;;;;;;;;7372508;19;1897;-68
2022/12/23 15:06:42;;;;;;;;;;;;;;;;;;7370040;19;803;-67
2022/12/23 15:09:10;;;;;;;;;;;;;;;;;;7370873;19;1823;-69
2022/12/23 15:11:38;;;;;;;;;;;;;;;;;;7374527;19;1593;-70
2022/12/23 15:14:07;;;;;;;;;;;;;;;;;;7372699;19;1845;-69
2022/12/23 15:16:35;;;;;;;;;;;;;;;;;;7372266;19;2229;-69
2022/12/23 15:19:03;;;;;;;;;;;;;;;;;;7368025;19;1908;-70
2022/12/23 15:21:31;;;;;;;;;;;;;;;;;;7369377;19;819;-70
2022/12/23 15:24:00;;;;;;;;;;;;;;;;;;7373048;19;1806;-71
2022/12/23 15:26:28;;;;;;;;;;;;;;;;;;7370337;19;1893;-71
2022/12/23 15:28:56;;;;;;;;;;;;;;;;;;7366370;19;1879;-70
2022/12/23 15:31:24;;;;;;;;;;;;;;;;;;7369228;19;1821;-70
2022/12/23 15:33:52;;;;;;;;;;;;;;;;;;7372219;19;1973;-70
2022/12/23 15:36:20;;;;;;;;;;;;;;;;;;7373232;19;1532;-69
2022/12/23 15:38:48;;;;;;;;;;;;;;;;;;7368788;19;1609;-70
2022/12/23 15:41:17;;;;;;;;;;;;;;;;;;7371840;19;1557;-70
2022/12/23 15:43:45;;;;;;;;;;;;;;;;;;7371539;19;1901;-68
2022/12/23 15:46:13;;;;;;;;;;;;;;;;;;7363976;19;1858;-68
2022/12/23 15:48:41;;;;;;;;;;;;;;;;;;7369503;19;1737;-69
2022/12/23 15:51:10;;;;;;;;;;;;;;;;;;7370978;19;1896;-69
2022/12/23 15:53:38;;;;;;;;;;;;;;;;;;7368905;19;1764;-69
2022/12/23 15:56:06;;;;;;;;;;;;;;;;;;7371317;19;1814;-68
2022/12/23 15:58:34;;;;;;;;;;;;;;;;;;7370925;19;1952;-69
2022/12/23 16:01:02;;;;;;;;;;;;;;;;;;7372152;19;1913;-69
2022/12/23 16:03:30;;;;;;;;;;;;;;;;;;7367007;19;1849;-71
2022/12/23 16:05:58;;;;;;;;;;;;;;;;;;7365193;19;1841;-70
2022/12/23 16:08:27;;;;;;;;;;;;;;;;;;7365792;19;1274;-70
2022/12/23 16:10:55;;;;;;;;;;;;;;;;;;7366832;19;734;-70
2022/12/23 16:13:23;;;;;;;;;;;;;;;;;;7366069;19;866;-70
2022/12/23 16:15:51;;;;;;;;;;;;;;;;;;7366990;19;855;-69
2022/12/23 16:18:19;;;;;;;;;;;;;;;;;;7365555;19;1349;-69
2022/12/23 16:20:47;;;;;;;;;;;;;;;;;;7367356;19;1873;-68
2022/12/23 16:23:16;;;;;;;;;;;;;;;;;;7367920;19;1903;-69
2022/12/23 16:25:44;;;;;;;;;;;;;;;;;;7364884;19;1853;-70
2022/12/23 16:28:12;;;;;;;;;;;;;;;;;;7365187;19;1345;-70
2022/12/23 16:30:40;;;;;;;;;;;;;;;;;;7366856;19;800;-72
2022/12/23 16:33:08;;;;;;;;;;;;;;;;;;7366249;19;833;-70
2022/12/23 16:35:36;;;;;;;;;;;;;;;;;;7365708;19;844;-68
2022/12/23 16:38:05;;;;;;;;;;;;;;;;;;7364867;19;809;-71
2022/12/23 16:40:33;;;;;;;;;;;;;;;;;;7362165;19;1356;-70
2022/12/23 16:43:01;;;;;;;;;;;;;;;;;;7368068;19;859;-69
2022/12/23 16:45:29;;;;;;;;;;;;;;;;;;7370721;19;1838;-68
2022/12/23 16:47:57;;;;;;;;;;;;;;;;;;7372594;19;1831;-69
2022/12/23 16:50:25;;;;;;;;;;;;;;;;;;7370029;19;1407;-70
2022/12/23 16:52:53;;;;;;;;;;;;;;;;;;7372199;19;1833;-69
2022/12/23 16:55:22;;;;;;;;;;;;;;;;;;7371717;19;819;-69
2022/12/23 16:57:50;;;;;;;;;;;;;;;;;;7370809;19;818;-69
2022/12/23 17:00:18;;;;;;;;;;;;;;;;;;7370303;19;1318;-70
2022/12/23 17:02:46;;;;;;;;;;;;;;;;;;7371469;19;849;-71
2022/12/23 17:05:14;;;;;;;;;;;;;;;;;;7371024;19;1856;-70
2022/12/23 17:07:42;;;;;;;;;;;;;;;;;;7370563;19;810;-70
2022/12/23 17:10:11;;;;;;;;;;;;;;;;;;7369694;19;1345;-69
2022/12/23 17:12:39;;;;;;;;;;;;;;;;;;7371890;19;865;-70
2022/12/23 17:15:07;;;;;;;;;;;;;;;;;;7371644;19;774;-71
2022/12/23 17:17:35;;;;;;;;;;;;;;;;;;7369978;19;854;-70
2022/12/23 17:20:04;;;;;;;;;;;;;;;;;;7375753;19;1318;-71
2022/12/23 17:22:32;;;;;;;;;;;;;;;;;;7378012;19;1852;-70
2022/12/23 17:25:00;;;;;;;;;;;;;;;;;;7383784;19;1905;-70
2022/12/23 17:27:29;;;;;;;;;;;;;;;;;;7379253;19;866;-69
2022/12/23 17:29:57;;;;;;;;;;;;;;;;;;7370714;19;1309;-68
2022/12/23 17:32:25;;;;;;;;;;;;;;;;;;7371464;19;842;-70
2022/12/23 17:34:53;;;;;;;;;;;;;;;;;;7372319;19;1845;-69
2022/12/23 17:37:21;;;;;;;;;;;;;;;;;;7370964;19;853;-68